Aviation Digital Data Service (ADDS)

Output produced by METARs form (0015 UTC 29 August 2015)
found at http://aviationweather.gov/adds/metars/
 
KDAG 282350Z AUTO 29008KT 10SM CLR 42/04 A2983 RMK AO2 SLP066 T04220044 10428 20367 56025
KDAG 282320Z 2900/2924 33006KT P6SM FEW120 SCT250 
     FM290100 23012KT P6SM SCT250 
     FM290600 26010KT P6SM SCT250 
     FM291700 28012G20KT P6SM SCT250
       
KEDW 282358Z 23015KT 60SM FEW120 BKN350 39/06 A2986 RMK AO2A SLP082 CONTRAILS T03920055 10399 20330 57020
TAF KEDW 2818/2924 VRB06KT 9999 FEW350 QNH2993INS 
     BECMG 2823/2824 23015G25KT 9999 BKN300 510009 QNH2990INS 
     BECMG 2904/2905 23009KT 9999 SKC QNH2989INS 
     BECMG 2911/2912 VRB06KT 9999 SKC QNH2990INS 
     BECMG 2920/2921 24012G20KT 9999 SKC QNH2989INS TX39/2823Z TN19/2914Z
       
KVCV 282355Z AUTO 18016G21KT 10SM CLR 39/05 A2992 RMK AO2
KONT 282353Z 25012G21KT 10SM FEW100 FEW270 38/09 A2982 RMK AO2 SLP074 T03830089 10411 20344 56014
KONT 282325Z 2900/3006 26012KT P6SM FEW100 FEW250 
     FM290430 VRB05KT P6SM SKC 
     FM291930 26012G18KT P6SM SKC 
     FM300500 VRB05KT P6SM SKC
       
KNID 282356Z AUTO 16011G17KT 10SM CLR 40/04 A2985 RMK AO2 SLP083 T04000044 10406 20350 56021 $
KSNA 282353Z VRB06KT 10SM FEW060 SCT300 31/17 A2981 RMK AO2 SLP093 T03060167 10333 20300 57011
KSNA 282325Z 2900/2924 22009KT P6SM SKC 
     FM290300 VRB04KT P6SM SKC 
     TEMPO 2905/2908 5SM BR SCT008 
     FM291100 VRB03KT 3SM BR BKN005 
     FM291530 VRB04KT P6SM FEW008 
     FM291900 22011KT P6SM SKC
       
KSAN 282351Z 31006KT 10SM FEW030 SCT070 SCT150 30/17 A2983 RMK AO2 SLP102 T03000172 10322 20294 55012
KSAN 282325Z 2900/3006 27008KT P6SM SKC 
     FM290200 VRB04KT P6SM FEW008 
     FM291100 17004KT 5SM BR BKN006 
     FM291600 VRB05KT P6SM FEW008 
     FM292000 29011KT P6SM FEW010 
     FM300230 VRB05KT P6SM SCT010
       
KNXP 282356Z 12010KT 10SM CLR 40/11 A2991 RMK AO2 SLP084 T04000111 10406 20367 56022 $
TAF KNXP 2821/2921 13009KT 9999 SKC QNH2988INS 
     BECMG 2823/2901 20008KT QNH2987INS 
     BECMG 2906/2908 VRB05KT QNH2995INS T40/2823Z T27/2913Z
       
KPSP 282353Z 11008KT 10SM SCT120 44/12 A2973 RMK AO2 SLP061 T04390122 10444 20378 56026
KPSP 282325Z 2900/2924 10009KT P6SM SKC 
     FM290230 33010KT P6SM SKC 
     FM290800 VRB06KT P6SM SKC
       
KLAX 282353Z 25012KT 10SM SCT080 SCT250 28/16 A2983 RMK AO2 SLP098 T02780161 10300 20278 56012 $
KLAX 282338Z 2900/3006 26012KT P6SM FEW090 SCT250 
     FM290300 26007KT P6SM SKC 
     FM290600 VRB03KT P6SM SKC 
     FM291200 VRB03KT 3SM BR BKN003 
     FM291600 26004KT 5SM HZ SCT005 
     FM291800 25007KT P6SM SCT250 
     FM292000 25010KT P6SM FEW250 
     FM292200 26012KT P6SM SKC 
     FM300300 25008KT P6SM SKC
       
KCNO 282353Z 24014KT 10SM FEW100 38/09 A2982 RMK AO2 SLP089 T03780094 10417 20356 56012
KSMO 282351Z 24009KT 10SM CLR 28/16 A2983 RMK AO2 SLP098 T02780156 10311 20278 56011
KLGB 282353Z 30011KT 10SM CLR 34/13 A2980 RMK AO2 SLP091 T03440133 10356 20322 56013
KLGB 282338Z 2900/2924 29009KT P6SM SKC 
     FM290500 VRB03KT P6SM SKC 
     FM291100 VRB03KT 4SM BR BKN005 
     FM291600 VRB03KT 6SM HZ SKC 
     FM291800 19005KT P6SM SKC 
     FM292100 21008KT P6SM SKC 
     FM292300 29009KT P6SM SKC
       
KVNY 282351Z 30008KT 10SM CLR 39/07 A2981 RMK AO2 SLP082 T03890072 10406 20339 56014
KVNY 282338Z 2900/2924 30007KT P6SM SKC 
     FM290400 VRB03KT P6SM SKC 
     FM291800 13005KT P6SM SKC 
     FM292100 15010KT P6SM SKC
       
KBUR 282353Z 16011KT 10SM CLR 36/12 A2982 RMK AO2 SLP082 T03610117 10389 20339 56012
KBUR 282338Z 2900/2924 16008KT P6SM SKC 
     FM290400 12006KT P6SM SKC 
     FM290800 VRB03KT P6SM SKC 
     FM291800 13004KT P6SM SKC 
     FM292100 19008KT P6SM SKC
       
KBFL 282354Z 28012KT 10SM CLR 39/07 A2979 RMK AO2 SLP079 T03940072 10400 20328 56022
KBFL 282320Z 2900/2924 30011KT P6SM SCT250 
     FM290300 35008KT P6SM SCT250 
     FM290900 VRB04KT P6SM SCT250 
     FM292000 30010KT P6SM SCT250
       
KPMD 282353Z AUTO 27018KT 9SM CLR 38/07 A2992 RMK AO2 SLP096 T03780072 10389 20344 56014
KPMD 282338Z 2900/2924 27017G24KT P6SM SKC 
     FM290300 25012KT P6SM SKC 
     FM290500 23008KT P6SM SKC 
     FM291800 26011KT P6SM SKC 
     FM292000 25015G22KT P6SM SKC 
     FM292200 25018G26KT P6SM SKC
       
KOXR 282351Z 26012KT 9SM CLR 27/21 A2983 RMK AO2 SLP099 T02670206 10317 20267 56013
KOXR 282338Z 2900/2924 26010KT P6SM SKC 
     FM290400 VRB03KT P6SM SKC 
     FM291100 VRB03KT 4SM BR SKC 
     FM291800 27007KT P6SM SCT250 
     FM292100 26011KT P6SM SCT250
       
KWJF 282356Z 25019G24KT 10SM CLR 38/08 A2991 RMK AO2 SLP100 T03780078 10400 20350 56012
KWJF 282338Z 2900/2924 22016G24KT P6SM SKC 
     FM290300 24012KT P6SM SKC 
     FM290500 23009KT P6SM SKC 
     FM291800 25011KT P6SM SKC 
     FM292000 24017G25KT P6SM SKC 
     FM292200 24020G28KT P6SM SKC
       
KCMA 282355Z 26012KT 10SM CLR 31/16 A2982 RMK AO2 SLP103 T03110156 10350 20306 58008
KFAT 282353Z 16003KT 10SM BKN250 41/07 A2979 RMK AO2 SLP082 MTNS OBSC FU HZ DSNT N-E-SE T04060072 10406 20322 56023
KFAT 282320Z 2900/2924 31008KT P6SM SCT250 
     TEMPO 2903/2907 31012G19KT
       
KEED 282356Z AUTO 07008KT 10SM CLR 43/10 A2975 RMK AO2 LTG DSNT NE SLP033 T04330100 10444 20389 56024
KEED 282320Z 2900/2924 VRB05KT P6SM FEW120 SCT200 
     FM290200 23008KT P6SM SKC 
     FM291100 VRB04KT P6SM SKC 
     FM292000 20010G18KT P6SM FEW100
       
KLSV 290011Z AUTO 10011G19KT 010V140 10SM CLR 40/05 A2981 RMK AO2 WSHFT 10 PRESFR
TAF KLSV 2817/2923 VRB06KT 9999 SKC QNH2992INS 
     BECMG 2818/2819 17012KT 9999 SKC QNH2985INS 
     BECMG 2900/2901 30009KT 9999 SKC QNH2982INS 
     BECMG 2903/2904 05009KT 9999 SKC QNH2984INS 
     BECMG 2912/2913 VRB06KT 9999 SKC QNH2983INS 
     BECMG 2920/2921 30009KT 9999 SKC QNH2981INS TX39/2823Z TN31/2912Z
       
KLAS 282356Z 09008KT 10SM SCT120 SCT250 41/08 A2982 RMK AO2 SLP066 ACC ALQDS T04060083 10406 20356 56024
KLAS 282320Z 2900/2924 06008KT P6SM FEW100 SCT250 
     FM290300 21007KT P6SM SCT250 
     FM291600 18006KT P6SM SKC
       
KHII 282350Z AUTO 25003KT 10SM CLR 43/09 A2974 RMK AO2
KIFP 282355Z AUTO 01005KT 10SM CLR 43/10 A2974 RMK AO2
KIFP 282320Z 2900/2924 22007KT P6SM FEW120 SCT200 
     FM290200 VRB05KT P6SM SKC 
     FM291900 20010KT P6SM FEW100